Time;durP1;ratioP1;P1;durP2;ratioP2;P2;SDS_P1;SDS_P2;PMS_P1;PMS_P2;Temp;Humidity;BMP_temperature;BMP_pressure;BME280_temperature;BME280_humidity;BME280_pressure;Samples;Min_cycle;Max_cycle;Signal;HPM_P1;HPM_P2
2023/02/13 00:01:51;;;;;;;27.05;14.90;;;7.20;99.90;;;;;;5022775;28;20045;-73
2023/02/13 00:04:18;;;;;;;35.63;17.83;;;7.30;99.90;;;;;;5011753;28;20847;-73
2023/02/13 00:06:46;;;;;;;36.00;17.25;;;7.20;99.90;;;;;;5008800;28;20048;-73
2023/02/13 00:09:12;;;;;;;31.40;15.63;;;7.20;99.90;;;;;;5005450;28;20041;-73
2023/02/13 00:11:38;;;;;;;28.45;15.93;;;7.20;99.90;;;;;;5039879;28;20041;-73
2023/02/13 00:14:04;;;;;;;31.02;14.02;;;7.20;99.90;;;;;;5033332;28;20072;-73
2023/02/13 00:16:30;;;;;;;31.58;14.45;;;7.20;99.90;;;;;;5027122;28;20393;-73
2023/02/13 00:18:55;;;;;;;34.15;16.13;;;7.10;99.90;;;;;;5004366;28;20041;-73
2023/02/13 00:21:21;;;;;;;32.38;14.95;;;7.10;99.90;;;;;;5022611;28;20069;-73
2023/02/13 00:23:47;;;;;;;26.58;13.57;;;7.10;99.90;;;;;;5018026;28;20088;-72
2023/02/13 00:26:14;;;;;;;26.85;13.70;;;7.10;99.90;;;;;;4988677;28;20045;-73
2023/02/13 00:28:39;;;;;;;29.65;14.43;;;7.20;99.90;;;;;;5033766;28;20762;-73
2023/02/13 00:31:13;;;;;;;28.83;14.70;;;7.20;99.90;;;;;;5023521;28;20084;-73
2023/02/13 00:33:39;;;;;;;32.72;16.67;;;7.20;99.90;;;;;;5015625;28;20049;-73
2023/02/13 00:36:12;;;;;;;26.15;13.90;;;7.30;99.90;;;;;;4988339;28;20157;-73
2023/02/13 00:38:39;;;;;;;25.50;13.82;;;7.30;99.90;;;;;;5018954;28;20162;-73
2023/02/13 00:41:05;;;;;;;22.35;12.85;;;7.30;99.90;;;;;;5006753;28;20050;-74
2023/02/13 00:43:31;;;;;;;29.58;14.90;;;7.30;99.90;;;;;;5012488;28;20056;-73
2023/02/13 00:45:59;;;;;;;26.02;14.00;;;7.30;99.90;;;;;;5012695;28;20042;-73
2023/02/13 00:48:26;;;;;;;29.75;14.60;;;7.30;99.90;;;;;;5019526;28;20157;-73
2023/02/13 00:50:51;;;;;;;28.17;13.50;;;7.30;99.90;;;;;;5021055;28;20119;-73
2023/02/13 00:53:18;;;;;;;26.23;13.93;;;7.30;99.90;;;;;;5030876;28;20033;-73
2023/02/13 00:55:45;;;;;;;25.98;13.07;;;7.30;99.90;;;;;;5027011;28;20125;-73
2023/02/13 00:58:11;;;;;;;25.30;13.20;;;7.30;99.90;;;;;;5005078;28;20068;-73
2023/02/13 01:00:37;;;;;;;24.42;13.52;;;7.40;99.90;;;;;;4988998;28;20073;-73
2023/02/13 01:03:02;;;;;;;25.33;14.02;;;7.30;99.90;;;;;;5005630;28;20049;-73
2023/02/13 01:05:28;;;;;;;32.15;16.27;;;7.40;99.90;;;;;;5027352;28;20045;-73
2023/02/13 01:07:54;;;;;;;27.02;14.40;;;7.30;99.90;;;;;;5005641;28;20057;-73
2023/02/13 01:10:20;;;;;;;27.13;14.70;;;7.30;99.90;;;;;;5020280;28;20042;-73
2023/02/13 01:12:45;;;;;;;25.40;13.88;;;7.40;99.90;;;;;;5036957;28;20100;-73
2023/02/13 01:15:11;;;;;;;27.67;13.80;;;7.50;99.90;;;;;;4997955;28;20061;-73
2023/02/13 01:17:39;;;;;;;30.13;14.45;;;7.40;99.90;;;;;;5024753;28;20045;-73
2023/02/13 01:20:09;;;;;;;29.45;14.15;;;7.30;99.90;;;;;;4992379;28;20060;-72
2023/02/13 01:22:35;;;;;;;31.73;16.58;;;7.20;99.90;;;;;;5025258;28;20060;-73
2023/02/13 01:25:01;;;;;;;24.77;14.05;;;7.20;99.90;;;;;;5018043;28;20056;-73
2023/02/13 01:27:27;;;;;;;27.27;13.68;;;7.20;99.90;;;;;;4991463;28;20112;-73
2023/02/13 01:29:53;;;;;;;29.90;14.63;;;7.20;99.90;;;;;;5027611;28;20041;-73
2023/02/13 01:32:19;;;;;;;28.50;14.95;;;7.30;99.90;;;;;;5024138;28;20096;-73
2023/02/13 01:34:44;;;;;;;27.02;13.65;;;7.20;99.90;;;;;;5029020;28;20045;-73
2023/02/13 01:37:10;;;;;;;31.55;15.55;;;7.30;99.90;;;;;;5027910;28;20536;-73
2023/02/13 01:39:36;;;;;;;31.35;16.42;;;7.20;99.90;;;;;;5013483;28;20049;-73
2023/02/13 01:42:02;;;;;;;28.23;14.52;;;7.20;99.90;;;;;;5023141;28;20049;-73
2023/02/13 01:44:43;;;;;;;30.75;15.25;;;7.10;99.90;;;;;;5019583;28;20076;-72
2023/02/13 01:47:09;;;;;;;29.58;15.25;;;7.10;99.90;;;;;;5063974;28;20045;-72
2023/02/13 01:49:35;;;;;;;32.83;15.15;;;7.00;99.90;;;;;;5029494;28;20042;-72
2023/02/13 01:52:00;;;;;;;31.58;15.52;;;7.00;99.90;;;;;;5030430;28;20138;-72
2023/02/13 01:54:29;;;;;;;30.83;15.55;;;7.00;99.90;;;;;;5043576;28;20150;-73
2023/02/13 01:56:58;;;;;;;33.22;15.40;;;7.00;99.90;;;;;;5028983;28;20045;-72
2023/02/13 01:59:25;;;;;;;;;;;7.00;99.90;;;;;;5016265;28;20053;-72
2023/02/13 02:01:51;;;;;;;32.53;15.07;;;7.00;99.90;;;;;;5044927;28;19914;-73
2023/02/13 02:04:21;;;;;;;32.92;15.13;;;7.00;99.90;;;;;;5014244;28;20533;-72
2023/02/13 02:06:52;;;;;;;34.38;17.65;;;7.00;99.90;;;;;;5007410;28;20121;-72
2023/02/13 02:09:20;;;;;;;28.50;14.95;;;7.00;99.90;;;;;;5004512;28;20037;-73
2023/02/13 02:12:01;;;;;;;32.57;14.97;;;7.10;99.90;;;;;;5023684;28;20041;-72
2023/02/13 02:14:27;;;;;;;31.50;15.43;;;7.10;99.90;;;;;;5015747;28;20461;-72
2023/02/13 02:16:53;;;;;;;33.63;15.20;;;7.00;99.90;;;;;;4967188;28;20128;-73
2023/02/13 02:20:00;;;;;;;32.20;15.65;;;7.10;99.90;;;;;;5008641;28;20132;-73
2023/02/13 02:22:50;;;;;;;28.83;14.90;;;7.10;99.90;;;;;;5020352;28;20085;-73
2023/02/13 02:25:16;;;;;;;34.40;16.25;;;7.10;99.90;;;;;;5049931;28;20065;-73
2023/02/13 02:28:23;;;;;;;37.35;17.50;;;7.00;99.90;;;;;;5026164;28;20046;-73
2023/02/13 02:31:17;;;;;;;30.30;16.30;;;7.10;99.90;;;;;;5023657;28;20038;-72
2023/02/13 02:34:20;;;;;;;34.00;15.13;;;7.10;99.90;;;;;;5011096;28;20102;-72
2023/02/13 02:36:56;;;;;;;31.05;15.55;;;7.10;99.90;;;;;;5017943;28;20097;-72
2023/02/13 02:39:28;;;;;;;29.73;14.73;;;7.10;99.90;;;;;;5027896;28;20037;-73
2023/02/13 02:42:17;;;;;;;27.73;14.23;;;7.10;99.90;;;;;;5010900;28;20049;-73
2023/02/13 02:44:46;;;;;;;31.52;14.77;;;7.10;99.90;;;;;;5033729;28;20042;-72
2023/02/13 02:50:33;;;;;;;30.42;15.32;;;7.20;99.90;;;;;;5010799;28;20042;-73
2023/02/13 02:53:03;;;;;;;28.55;14.65;;;7.10;99.90;;;;;;4995461;28;20508;-73
2023/02/13 02:55:29;;;;;;;27.95;13.98;;;7.10;99.90;;;;;;5026840;28;20731;-73
2023/02/13 03:06:25;;;;;;;25.13;13.68;;;7.10;99.90;;;;;;5027295;28;20041;-73
2023/02/13 03:14:26;;;;;;;27.98;14.93;;;7.00;99.90;;;;;;5025772;28;20496;-72
2023/02/13 03:23:16;;;;;;;31.05;14.27;;;7.00;99.90;;;;;;5044190;28;20041;-72
2023/02/13 03:25:42;;;;;;;33.75;15.45;;;7.00;99.90;;;;;;5018989;28;20554;-73
2023/02/13 03:31:11;;;;;;;29.88;14.38;;;7.00;99.90;;;;;;5034342;28;20042;-72
2023/02/13 03:33:46;;;;;;;27.70;13.50;;;7.00;99.90;;;;;;5027207;28;20045;-73
2023/02/13 03:39:43;;;;;;;30.40;14.52;;;7.00;99.90;;;;;;5029484;28;20042;-72
2023/02/13 03:42:21;;;;;;;31.73;14.38;;;7.00;99.90;;;;;;5024103;28;20041;-73
2023/02/13 03:47:43;;;;;;;30.42;14.63;;;6.90;99.90;;;;;;4998196;28;20050;-73
2023/02/13 03:50:10;;;;;;;30.02;14.18;;;7.00;99.90;;;;;;5019331;28;20067;-74
2023/02/13 03:52:41;;;;;;;26.88;12.88;;;6.90;99.90;;;;;;5025686;28;20128;-74
2023/02/13 04:00:59;;;;;;;28.50;14.63;;;6.80;99.90;;;;;;5029333;28;20049;-73
2023/02/13 04:03:32;;;;;;;32.22;13.50;;;6.90;99.90;;;;;;5015201;28;20390;-73
2023/02/13 04:06:03;;;;;;;32.38;13.98;;;6.90;99.90;;;;;;5003012;28;20047;-73
2023/02/13 04:08:29;;;;;;;30.40;12.82;;;6.80;99.90;;;;;;5012346;28;20053;-74
2023/02/13 04:11:16;;;;;;;30.83;14.00;;;6.80;99.90;;;;;;5026463;28;20050;-73
2023/02/13 04:13:56;;;;;;;29.63;13.57;;;6.90;99.90;;;;;;5003750;28;20617;-73
2023/02/13 04:16:31;;;;;;;28.17;12.85;;;6.90;99.90;;;;;;5030147;28;20674;-73
2023/02/13 04:18:56;;;;;;;31.85;14.45;;;6.80;99.90;;;;;;5022668;28;20454;-73
2023/02/13 04:21:22;;;;;;;29.00;14.15;;;6.90;99.90;;;;;;5020150;28;20056;-73
2023/02/13 04:23:48;;;;;;;27.27;12.18;;;6.80;99.90;;;;;;5019145;28;20049;-73
2023/02/13 04:26:17;;;;;;;24.33;11.52;;;6.80;99.90;;;;;;5035768;28;20132;-73
2023/02/13 04:28:42;;;;;;;30.55;13.38;;;6.80;99.90;;;;;;4980725;28;20078;-73
2023/02/13 04:31:08;;;;;;;27.40;11.70;;;6.80;99.90;;;;;;5000834;28;20784;-73
2023/02/13 04:33:34;;;;;;;30.10;14.75;;;6.70;99.90;;;;;;5007923;28;20038;-73
2023/02/13 04:35:59;;;;;;;31.20;13.45;;;6.70;99.90;;;;;;5030061;28;20120;-73
2023/02/13 04:38:25;;;;;;;31.60;14.10;;;6.80;99.90;;;;;;5019437;28;20064;-73
2023/02/13 04:40:51;;;;;;;29.83;13.27;;;6.80;99.90;;;;;;5031510;28;20073;-72
2023/02/13 04:43:16;;;;;;;28.65;13.73;;;6.80;99.90;;;;;;5012958;28;20115;-73
2023/02/13 04:45:42;;;;;;;32.80;15.43;;;6.80;99.90;;;;;;5032091;28;20063;-73
2023/02/13 04:48:08;;;;;;;29.77;12.93;;;6.80;99.90;;;;;;5017398;28;20441;-73
2023/02/13 04:50:33;;;;;;;29.55;12.73;;;6.80;99.90;;;;;;5035585;28;20077;-72
2023/02/13 04:52:59;;;;;;;27.85;12.55;;;6.80;99.90;;;;;;5008014;28;20065;-73
2023/02/13 04:55:26;;;;;;;31.90;12.90;;;6.80;99.90;;;;;;5014402;28;20128;-73
2023/02/13 04:57:52;;;;;;;27.38;12.65;;;6.70;99.90;;;;;;5034779;28;20625;-73
2023/02/13 05:00:21;;;;;;;33.85;12.95;;;6.70;99.90;;;;;;5002608;28;20454;-73
2023/02/13 05:02:46;;;;;;;;;;;6.80;99.90;;;;;;5028761;28;20513;-73
2023/02/13 05:05:12;;;;;;;29.50;13.07;;;6.70;99.90;;;;;;5050969;28;19917;-73
2023/02/13 05:07:38;;;;;;;31.65;14.68;;;6.70;99.90;;;;;;5031435;28;20549;-73
2023/02/13 05:10:04;;;;;;;28.33;12.95;;;6.70;99.90;;;;;;5010794;28;20479;-73
2023/02/13 05:12:30;;;;;;;28.08;12.75;;;6.70;99.90;;;;;;5012425;28;20046;-73
2023/02/13 05:14:55;;;;;;;34.50;13.23;;;6.70;99.90;;;;;;5019546;28;20061;-73
2023/02/13 05:17:21;;;;;;;29.63;13.73;;;6.70;99.90;;;;;;5034044;28;20363;-72
2023/02/13 05:19:47;;;;;;;29.15;12.95;;;6.70;99.90;;;;;;5015401;28;20446;-73
2023/02/13 05:24:57;;;;;;;25.67;12.48;;;6.70;99.90;;;;;;5019070;28;20312;-73
2023/02/13 05:27:22;;;;;;;25.70;11.52;;;6.70;99.90;;;;;;5017717;28;20125;-73
2023/02/13 05:29:48;;;;;;;27.13;12.05;;;6.80;99.90;;;;;;5028219;28;20556;-73
2023/02/13 05:32:14;;;;;;;26.80;12.65;;;6.80;99.90;;;;;;5015588;28;20057;-73
2023/02/13 05:34:40;;;;;;;26.92;13.13;;;6.70;99.90;;;;;;4994379;28;20069;-74
2023/02/13 05:37:05;;;;;;;27.95;12.75;;;6.70;99.90;;;;;;5001138;28;20081;-74
2023/02/13 05:39:31;;;;;;;26.10;12.85;;;6.80;99.90;;;;;;5021933;28;20409;-74
2023/02/13 05:41:57;;;;;;;27.70;12.52;;;6.80;99.90;;;;;;5012094;28;20076;-73
2023/02/13 05:44:22;;;;;;;29.60;12.48;;;6.70;99.90;;;;;;5022017;28;20049;-73
2023/02/13 05:46:48;;;;;;;23.70;12.07;;;6.70;99.90;;;;;;5011597;28;20042;-73
2023/02/13 05:49:14;;;;;;;25.85;11.75;;;6.70;99.90;;;;;;5014696;28;20045;-73
2023/02/13 05:51:41;;;;;;;28.00;12.48;;;6.80;99.90;;;;;;4994925;28;20125;-73
2023/02/13 05:54:07;;;;;;;33.85;14.07;;;6.80;99.90;;;;;;5008399;28;20050;-73
2023/02/13 05:56:32;;;;;;;23.67;11.88;;;6.90;99.90;;;;;;5023416;28;20485;-73
2023/02/13 05:58:58;;;;;;;26.77;12.07;;;6.80;99.90;;;;;;5014920;28;20046;-73
2023/02/13 06:01:24;;;;;;;24.90;11.52;;;6.80;99.90;;;;;;5014079;28;20045;-73
2023/02/13 06:03:50;;;;;;;24.42;11.35;;;6.80;99.90;;;;;;4968565;28;20432;-73
2023/02/13 06:06:16;;;;;;;27.20;12.15;;;6.80;99.90;;;;;;5024820;28;20049;-73
2023/02/13 06:08:42;;;;;;;22.70;11.70;;;6.70;99.90;;;;;;5017916;28;20541;-73
2023/02/13 06:11:08;;;;;;;26.08;11.93;;;6.70;99.90;;;;;;5023254;28;20052;-74
2023/02/13 06:13:34;;;;;;;26.05;10.88;;;6.70;99.90;;;;;;5028564;28;20366;-73
2023/02/13 06:15:59;;;;;;;22.63;11.63;;;6.70;99.90;;;;;;5013776;28;20123;-74
2023/02/13 06:18:25;;;;;;;27.02;11.60;;;6.70;99.90;;;;;;5023349;28;20115;-73
2023/02/13 06:20:51;;;;;;;26.27;12.55;;;6.70;99.90;;;;;;5009172;28;20050;-73
2023/02/13 06:23:17;;;;;;;24.48;11.88;;;6.70;99.90;;;;;;5010604;28;20414;-73
2023/02/13 06:25:43;;;;;;;25.58;11.65;;;6.70;99.90;;;;;;5007943;28;20076;-73
2023/02/13 06:28:09;;;;;;;24.60;11.52;;;6.70;99.90;;;;;;5030554;28;20045;-73
2023/02/13 06:30:35;;;;;;;22.42;11.13;;;6.70;99.90;;;;;;5032798;28;20065;-73
2023/02/13 06:33:01;;;;;;;22.00;10.75;;;6.70;99.90;;;;;;5013502;28;20048;-74
2023/02/13 06:35:26;;;;;;;23.63;11.63;;;6.70;99.90;;;;;;5026256;28;20041;-73
2023/02/13 06:37:52;;;;;;;24.75;11.13;;;6.70;99.90;;;;;;5006702;28;20096;-73
2023/02/13 06:40:21;;;;;;;21.17;10.55;;;6.70;99.90;;;;;;5012884;28;20052;-73
2023/02/13 06:42:47;;;;;;;25.95;10.85;;;6.80;99.90;;;;;;5030899;28;20802;-73
2023/02/13 06:45:13;;;;;;;21.52;10.73;;;6.80;99.90;;;;;;5013425;28;20132;-75
2023/02/13 06:47:43;;;;;;;24.33;10.88;;;6.80;99.90;;;;;;5030293;28;20045;-72
2023/02/13 06:50:09;;;;;;;23.08;11.27;;;6.80;99.90;;;;;;5023229;28;20126;-73
2023/02/13 06:52:35;;;;;;;21.98;10.48;;;6.90;99.90;;;;;;5030510;28;20088;-73
2023/02/13 06:55:01;;;;;;;22.98;10.63;;;6.90;99.90;;;;;;5025417;28;20091;-73
2023/02/13 06:57:28;;;;;;;20.98;9.68;;;6.90;99.90;;;;;;5029343;28;20525;-74
2023/02/13 06:59:54;;;;;;;21.45;10.23;;;6.90;99.90;;;;;;5021188;28;20049;-73
2023/02/13 07:02:20;;;;;;;25.98;9.98;;;7.00;99.90;;;;;;5048287;28;20052;-73
2023/02/13 07:04:45;;;;;;;22.08;9.88;;;6.90;99.90;;;;;;5011931;28;20061;-73
2023/02/13 07:07:11;;;;;;;21.67;9.45;;;7.00;99.90;;;;;;5016518;28;20576;-73
2023/02/13 07:09:37;;;;;;;19.38;9.13;;;7.00;99.90;;;;;;5027560;28;20049;-73
2023/02/13 07:12:04;;;;;;;21.58;10.93;;;7.00;99.90;;;;;;5034378;28;20045;-73
2023/02/13 07:14:30;;;;;;;23.35;10.15;;;7.00;99.90;;;;;;5028803;28;20053;-73
2023/02/13 07:16:56;;;;;;;19.95;10.15;;;7.00;99.90;;;;;;5032227;28;20050;-74
2023/02/13 07:19:22;;;;;;;19.92;10.27;;;7.00;99.90;;;;;;5030796;28;20060;-73
2023/02/13 07:21:47;;;;;;;18.85;9.63;;;7.00;99.90;;;;;;5023547;28;20081;-74
2023/02/13 07:24:13;;;;;;;21.98;10.13;;;7.00;99.90;;;;;;5023548;28;20505;-73
2023/02/13 07:26:39;;;;;;;16.55;9.25;;;7.10;99.90;;;;;;5035197;28;20462;-73
2023/02/13 07:29:05;;;;;;;20.73;9.65;;;7.00;99.90;;;;;;5035299;28;20041;-73
2023/02/13 07:31:34;;;;;;;18.85;9.85;;;7.10;99.90;;;;;;5024613;28;20054;-73
2023/02/13 07:34:00;;;;;;;21.95;10.57;;;7.20;99.90;;;;;;5027213;28;20049;-73
2023/02/13 07:36:26;;;;;;;22.15;9.43;;;7.10;99.90;;;;;;5016947;28;20130;-73
2023/02/13 07:38:52;;;;;;;20.85;10.23;;;7.20;99.90;;;;;;5022119;28;20049;-73
2023/02/13 07:41:18;;;;;;;18.85;8.75;;;7.20;99.90;;;;;;5024573;28;20413;-73
2023/02/13 07:43:44;;;;;;;17.70;8.93;;;7.20;99.90;;;;;;5013420;28;20049;-74
2023/02/13 07:46:10;;;;;;;22.83;10.05;;;7.10;99.90;;;;;;5021555;28;20053;-75
2023/02/13 07:48:35;;;;;;;17.05;8.93;;;7.10;99.90;;;;;;5026305;28;20056;-74
2023/02/13 07:51:02;;;;;;;20.00;8.80;;;7.10;99.90;;;;;;5016003;28;20053;-75
2023/02/13 07:53:28;;;;;;;17.05;8.70;;;7.20;99.90;;;;;;5033139;28;20049;-75
2023/02/13 07:55:54;;;;;;;16.27;8.50;;;7.20;99.90;;;;;;4994857;28;20037;-75
2023/02/13 07:58:20;;;;;;;17.77;8.70;;;7.20;99.90;;;;;;5013076;28;20049;-73
2023/02/13 08:00:46;;;;;;;17.58;8.75;;;7.30;99.90;;;;;;5014675;28;20454;-74
2023/02/13 08:03:12;;;;;;;17.45;8.43;;;7.30;99.90;;;;;;4994195;28;20072;-74
2023/02/13 08:05:37;;;;;;;17.20;7.40;;;7.30;99.90;;;;;;5009804;28;20128;-73
2023/02/13 08:08:03;;;;;;;16.35;7.32;;;7.30;99.90;;;;;;5026495;28;20791;-75
2023/02/13 08:13:14;;;;;;;13.23;7.18;;;7.30;99.90;;;;;;5017052;28;20056;-74
2023/02/13 08:15:39;;;;;;;14.30;6.70;;;7.30;99.90;;;;;;5032704;28;20053;-74
2023/02/13 08:18:05;;;;;;;13.15;6.65;;;7.40;99.90;;;;;;5015892;28;20050;-75
2023/02/13 08:20:32;;;;;;;13.90;6.18;;;7.30;99.90;;;;;;5027166;28;20462;-74
2023/02/13 08:23:05;;;;;;;12.98;7.10;;;7.40;99.90;;;;;;5031127;28;20132;-73
2023/02/13 08:25:31;;;;;;;14.60;6.38;;;7.40;99.90;;;;;;5019596;28;20049;-73
2023/02/13 08:27:58;;;;;;;13.18;7.05;;;7.40;99.90;;;;;;5005372;28;20045;-74
2023/02/13 08:30:24;;;;;;;14.10;8.48;;;7.40;99.90;;;;;;5026962;28;20045;-74
2023/02/13 08:32:49;;;;;;;16.92;7.38;;;7.40;99.90;;;;;;4997428;28;20091;-73
2023/02/13 08:35:15;;;;;;;14.10;7.28;;;7.40;99.90;;;;;;5019022;28;20049;-73
2023/02/13 08:37:41;;;;;;;12.50;6.97;;;7.40;99.90;;;;;;5011645;28;20068;-73
2023/02/13 08:40:10;;;;;;;12.70;6.93;;;7.40;99.90;;;;;;5026753;28;20064;-73
2023/02/13 08:42:38;;;;;;;14.10;7.35;;;7.30;99.90;;;;;;5013518;28;20128;-73
2023/02/13 08:45:07;;;;;;;11.73;6.50;;;7.40;99.90;;;;;;5015662;28;20077;-74
2023/02/13 08:47:33;;;;;;;12.38;7.20;;;7.40;99.90;;;;;;5027202;28;20038;-74
2023/02/13 08:49:59;;;;;;;11.93;6.75;;;7.40;99.90;;;;;;5011906;28;20041;-73
2023/02/13 08:52:25;;;;;;;13.25;6.60;;;7.40;99.90;;;;;;5047807;28;20041;-73
2023/02/13 08:54:50;;;;;;;13.50;7.43;;;7.40;99.90;;;;;;5012925;28;20133;-73
2023/02/13 08:57:16;;;;;;;16.13;8.45;;;7.30;99.90;;;;;;5027615;28;20076;-73
2023/02/13 08:59:42;;;;;;;15.32;8.07;;;7.40;99.90;;;;;;5039608;28;20738;-73
2023/02/13 09:02:10;;;;;;;15.80;8.10;;;7.40;99.90;;;;;;5011369;28;20132;-73
2023/02/13 09:04:36;;;;;;;14.35;8.15;;;7.40;99.90;;;;;;5024471;28;20505;-73
2023/02/13 09:07:02;;;;;;;15.50;8.63;;;7.40;99.90;;;;;;5025449;28;20042;-73
2023/02/13 09:09:27;;;;;;;14.73;7.18;;;7.40;99.90;;;;;;4979347;28;20042;-73
2023/02/13 09:11:56;;;;;;;14.95;7.30;;;7.40;99.90;;;;;;5007381;28;20125;-74
2023/02/13 09:14:23;;;;;;;13.00;6.88;;;7.40;99.90;;;;;;5004308;28;20049;-76
2023/02/13 09:16:49;;;;;;;13.57;5.97;;;7.40;99.90;;;;;;5007497;28;20088;-75
2023/02/13 09:19:14;;;;;;;10.27;6.15;;;7.40;99.90;;;;;;5012996;28;20462;-75
2023/02/13 09:21:40;;;;;;;10.43;6.35;;;7.40;99.90;;;;;;5024759;28;20060;-74
2023/02/13 09:24:07;;;;;;;10.32;5.78;;;7.40;99.90;;;;;;5012134;28;20053;-75
2023/02/13 09:26:33;;;;;;;9.15;5.15;;;7.40;99.90;;;;;;4990671;28;20128;-75
2023/02/13 09:29:00;;;;;;;8.18;5.28;;;7.40;99.90;;;;;;5019368;28;20116;-75
2023/02/13 09:31:25;;;;;;;8.80;5.20;;;7.50;99.90;;;;;;5025621;28;20488;-75
2023/02/13 09:33:51;;;;;;;8.32;4.90;;;7.50;99.90;;;;;;5033633;28;20045;-76
2023/02/13 09:36:19;;;;;;;9.20;5.05;;;7.50;99.90;;;;;;5025997;28;20041;-75
2023/02/13 09:38:47;;;;;;;10.97;5.63;;;7.50;99.90;;;;;;5027568;28;20084;-75
2023/02/13 09:41:15;;;;;;;7.57;4.85;;;7.50;99.90;;;;;;5029465;28;20056;-74
2023/02/13 09:43:45;;;;;;;8.27;4.93;;;7.40;99.90;;;;;;5028895;28;20071;-74
2023/02/13 09:46:36;;;;;;;9.82;4.65;;;7.40;99.90;;;;;;5011894;28;20050;-74
2023/02/13 09:49:13;;;;;;;7.47;4.47;;;7.30;99.90;;;;;;5025128;28;20477;-74
2023/02/13 09:51:40;;;;;;;7.07;4.40;;;7.40;99.90;;;;;;5023973;28;20072;-74
2023/02/13 09:54:07;;;;;;;5.35;3.53;;;7.40;99.90;;;;;;5026301;28;20056;-74
2023/02/13 09:57:06;;;;;;;8.43;4.47;;;7.50;99.90;;;;;;5008221;28;20042;-74
2023/02/13 09:59:56;;;;;;;6.47;3.92;;;7.50;99.90;;;;;;5016721;28;20054;-75
2023/02/13 10:02:34;;;;;;;5.85;3.67;;;7.50;99.90;;;;;;5007903;28;20045;-76
2023/02/13 10:05:31;;;;;;;5.28;3.22;;;7.50;99.90;;;;;;5014422;28;20102;-74
2023/02/13 10:08:00;;;;;;;5.32;3.15;;;7.60;99.90;;;;;;5019881;28;20103;-74
2023/02/13 10:10:35;;;;;;;5.05;2.85;;;7.40;99.90;;;;;;5014731;28;20041;-74
2023/02/13 10:13:03;;;;;;;6.78;4.15;;;7.50;99.90;;;;;;5026058;28;20053;-75
2023/02/13 10:15:38;;;;;;;;;;;7.40;99.90;;;;;;5025184;28;20542;-74
2023/02/13 10:18:05;;;;;;;6.45;3.95;;;7.40;99.90;;;;;;5041550;28;19909;-75
2023/02/13 10:20:51;;;;;;;6.28;3.83;;;7.50;99.90;;;;;;5019410;28;20057;-77
2023/02/13 10:23:27;;;;;;;5.68;3.30;;;7.40;99.90;;;;;;5020910;28;20071;-75
2023/02/13 10:26:01;;;;;;;10.52;4.60;;;7.40;99.90;;;;;;4998703;28;20474;-75
2023/02/13 10:28:37;;;;;;;4.80;3.30;;;7.40;99.90;;;;;;5004079;28;20074;-76
2023/02/13 10:31:09;;;;;;;4.43;3.00;;;7.30;99.90;;;;;;5018623;28;20504;-76
2023/02/13 10:33:51;;;;;;;4.43;3.00;;;7.40;99.90;;;;;;5022314;28;20056;-75
2023/02/13 10:36:24;;;;;;;5.10;3.03;;;7.40;99.90;;;;;;5025141;28;20045;-75
2023/02/13 10:39:27;;;;;;;20.50;9.40;;;7.40;99.90;;;;;;5022095;28;20041;-74
2023/02/13 10:42:05;;;;;;;15.48;5.88;;;7.30;99.90;;;;;;5023714;28;20038;-73
2023/02/13 10:45:02;;;;;;;11.07;5.53;;;7.40;99.90;;;;;;5028813;28;20739;-73
2023/02/13 10:47:49;;;;;;;10.18;5.57;;;7.40;99.90;;;;;;5029567;28;20804;-77
2023/02/13 10:50:45;;;;;;;7.57;4.47;;;7.30;99.90;;;;;;5026965;28;20045;-75
2023/02/13 10:53:54;;;;;;;10.02;4.88;;;7.30;99.90;;;;;;5028800;28;20478;-78
2023/02/13 10:56:43;;;;;;;10.23;4.97;;;7.40;99.90;;;;;;5003213;28;20053;-76
2023/02/13 10:59:11;;;;;;;;;;;7.60;99.90;;;;;;5013297;28;20052;-75
2023/02/13 11:01:52;;;;;;;9.93;5.40;;;7.70;99.90;;;;;;5021349;28;19913;-75
2023/02/13 11:04:18;;;;;;;10.82;6.10;;;7.60;99.90;;;;;;5017155;28;20049;-74
2023/02/13 11:07:01;;;;;;;15.32;7.15;;;7.60;99.90;;;;;;5006733;28;20370;-74
2023/02/13 11:09:27;;;;;;;10.95;6.47;;;7.50;99.90;;;;;;5008833;28;20052;-75
2023/02/13 11:11:53;;;;;;;7.80;4.82;;;7.60;99.90;;;;;;5031700;28;20045;-75
2023/02/13 11:14:23;;;;;;;10.68;6.18;;;7.60;99.90;;;;;;5011002;28;20058;-74
2023/02/13 11:17:05;;;;;;;10.02;5.80;;;7.50;99.90;;;;;;5032643;28;20045;-74
2023/02/13 11:19:50;;;;;;;15.00;6.75;;;7.60;99.90;;;;;;5032325;28;20053;-74
2023/02/13 11:22:27;;;;;;;11.80;7.00;;;7.60;99.90;;;;;;4998787;28;20076;-76
2023/02/13 11:24:55;;;;;;;17.65;7.43;;;7.50;99.90;;;;;;5026120;28;20057;-74
2023/02/13 11:27:24;;;;;;;13.05;6.57;;;7.50;99.90;;;;;;5024002;28;20046;-74
2023/02/13 11:30:02;;;;;;;11.85;5.25;;;7.40;99.90;;;;;;5016302;28;20423;-75
2023/02/13 11:32:29;;;;;;;8.60;4.22;;;7.60;99.90;;;;;;5011008;28;20115;-74
2023/02/13 11:34:56;;;;;;;7.30;4.63;;;7.50;99.90;;;;;;5032908;28;20053;-75
2023/02/13 11:37:28;;;;;;;12.27;7.15;;;7.60;99.90;;;;;;5031167;28;20045;-74
2023/02/13 11:39:56;;;;;;;15.25;8.05;;;7.60;99.90;;;;;;5020637;28;20045;-75
2023/02/13 11:42:29;;;;;;;10.60;5.67;;;7.60;99.90;;;;;;5032411;28;20069;-75
2023/02/13 11:45:06;;;;;;;6.63;4.50;;;7.60;99.90;;;;;;5005480;28;20079;-74
2023/02/13 11:47:41;;;;;;;11.10;5.60;;;7.60;99.90;;;;;;5011196;28;20361;-75
2023/02/13 11:50:25;;;;;;;5.00;3.38;;;7.60;99.90;;;;;;5027748;28;20048;-76
2023/02/13 11:53:35;;;;;;;7.07;3.03;;;7.70;99.90;;;;;;5017207;28;20132;-74
2023/02/13 11:56:11;;;;;;;4.78;3.03;;;7.70;99.90;;;;;;5027307;28;20046;-74
2023/02/13 11:58:37;;;;;;;5.38;1.98;;;7.60;99.90;;;;;;5024954;28;20037;-75
2023/02/13 12:01:15;;;;;;;4.97;1.90;;;7.70;99.90;;;;;;4980515;28;20141;-75
2023/02/13 12:03:40;;;;;;;3.45;2.15;;;7.80;99.90;;;;;;5059911;28;20107;-75
2023/02/13 12:06:12;;;;;;;2.65;1.55;;;7.80;99.90;;;;;;5010976;28;20202;-74
2023/02/13 12:08:38;;;;;;;2.40;1.20;;;7.70;99.90;;;;;;5010645;28;20053;-75
2023/02/13 12:11:33;;;;;;;2.60;1.55;;;7.70;99.90;;;;;;5029166;28;20486;-74
2023/02/13 12:13:59;;;;;;;2.88;1.70;;;7.60;99.90;;;;;;5029385;28;20508;-76
2023/02/13 12:16:49;;;;;;;4.05;1.27;;;7.70;99.90;;;;;;5001059;28;20041;-76
2023/02/13 12:19:40;;;;;;;4.57;1.70;;;7.80;99.90;;;;;;4999405;28;20061;-76
2023/02/13 12:22:14;;;;;;;2.70;1.70;;;7.70;99.90;;;;;;5015175;28;20077;-75
2023/02/13 12:24:58;;;;;;;3.08;1.30;;;7.80;99.90;;;;;;5029537;28;20045;-76
2023/02/13 12:27:41;;;;;;;5.28;1.63;;;7.70;99.90;;;;;;5033277;28;20049;-76
2023/02/13 12:30:35;;;;;;;2.50;1.13;;;7.80;99.90;;;;;;5022219;28;20041;-77
2023/02/13 12:33:19;;;;;;;2.15;1.48;;;7.80;99.90;;;;;;5022648;28;20053;-76
2023/02/13 12:36:24;;;;;;;3.35;1.77;;;7.80;99.90;;;;;;5036977;28;20168;-76
2023/02/13 12:39:18;;;;;;;3.38;1.90;;;7.90;99.90;;;;;;5020771;28;20184;-76
2023/02/13 12:41:53;;;;;;;4.38;1.85;;;8.00;99.90;;;;;;4997763;28;20454;-76
2023/02/13 12:44:18;;;;;;;2.45;1.70;;;8.00;99.90;;;;;;5024528;28;20059;-76
2023/02/13 12:47:06;;;;;;;3.25;2.00;;;7.90;99.90;;;;;;5036063;28;20120;-77
2023/02/13 12:49:59;;;;;;;3.72;2.03;;;7.90;99.90;;;;;;5038140;28;20052;-76
2023/02/13 12:52:32;;;;;;;2.55;1.80;;;8.00;99.90;;;;;;5033589;28;20044;-75
2023/02/13 12:55:17;;;;;;;3.10;1.80;;;8.00;99.90;;;;;;5017045;28;20041;-76
2023/02/13 12:57:52;;;;;;;3.97;1.63;;;8.10;99.90;;;;;;5036413;28;20050;-76
2023/02/13 13:00:23;;;;;;;2.88;1.75;;;8.10;99.90;;;;;;5010979;28;20474;-77
2023/02/13 13:03:26;;;;;;;4.32;1.90;;;8.20;99.90;;;;;;5025609;28;20052;-76
2023/02/13 13:06:07;;;;;;;4.35;1.88;;;8.00;99.90;;;;;;5053330;28;20077;-77
2023/02/13 13:08:45;;;;;;;3.30;2.00;;;8.00;99.90;;;;;;5019264;28;20110;-75
2023/02/13 13:11:54;;;;;;;4.82;2.35;;;7.90;99.90;;;;;;5047421;28;20041;-75
2023/02/13 13:14:27;;;;;;;3.15;1.95;;;8.00;99.90;;;;;;5011059;28;20092;-75
2023/02/13 13:17:15;;;;;;;3.60;2.30;;;8.20;99.90;;;;;;5023447;28;20132;-75
2023/02/13 13:19:48;;;;;;;7.32;2.25;;;8.10;99.90;;;;;;5030737;28;20049;-75
2023/02/13 13:22:31;;;;;;;4.53;2.50;;;8.20;99.90;;;;;;5032765;28;20071;-75
2023/02/13 13:25:17;;;;;;;3.85;2.20;;;8.20;99.90;;;;;;5035896;28;20050;-75
2023/02/13 13:27:44;;;;;;;4.38;2.45;;;8.20;99.90;;;;;;5009430;28;20041;-76
2023/02/13 13:30:21;;;;;;;5.45;3.15;;;8.20;99.90;;;;;;5015587;28;20045;-75
2023/02/13 13:32:50;;;;;;;5.40;2.90;;;8.20;99.90;;;;;;5012846;28;20049;-76
2023/02/13 13:35:16;;;;;;;5.80;2.65;;;8.20;99.90;;;;;;5015464;28;20091;-75
2023/02/13 13:38:01;;;;;;;6.07;3.95;;;8.10;99.90;;;;;;5004944;28;20073;-77
2023/02/13 13:40:39;;;;;;;5.40;3.03;;;8.20;99.90;;;;;;4998371;28;20046;-75
2023/02/13 13:43:28;;;;;;;5.53;3.15;;;8.20;99.90;;;;;;5028089;28;20049;-76
2023/02/13 13:46:07;;;;;;;6.13;4.20;;;8.10;99.90;;;;;;5026049;28;20045;-75
2023/02/13 13:48:56;;;;;;;6.07;3.80;;;8.10;99.90;;;;;;5020223;28;20075;-75
2023/02/13 13:51:22;;;;;;;6.97;3.70;;;8.10;99.90;;;;;;5027951;28;20060;-75